Time,TemperatureF,DewpointF,PressureIn,WindDirection,WindDirectionDegrees,WindSpeedMPH,WindSpeedGustMPH,Humidity,HourlyPrecipIn,Conditions,Clouds,dailyrainin,SolarRadiationWatts/m^2,SoftwareType,DateUTC
2013-09-20 00:02:00,83.0,58.0,-100.00,South,183,1.0,4.0,42,0.00,,,0.00,1.000000,,2013-09-20 07:02:00,
2013-09-20 00:11:00,83.0,58.0,-100.00,South,183,1.0,4.0,42,0.00,,,0.00,1.000000,,2013-09-20 07:11:00,
2013-09-20 00:42:00,79.0,66.0,-100.00,ESE,123,6.0,9.0,64,0.00,,,0.00,1.000000,,2013-09-20 07:42:00,
2013-09-20 00:53:00,79.0,66.0,-100.00,ESE,123,6.0,9.0,64,0.00,,,0.00,1.000000,,2013-09-20 07:53:00,
2013-09-20 01:02:00,79.0,66.0,-100.00,ESE,123,6.0,9.0,64,0.00,,,0.00,1.000000,,2013-09-20 08:02:00,
2013-09-20 01:11:00,79.0,66.0,-100.00,ESE,123,6.0,9.0,64,0.00,,,0.00,1.000000,,2013-09-20 08:11:00,
2013-09-20 01:42:00,79.0,66.0,-100.00,ESE,123,7.0,8.0,64,0.00,,,0.00,1.000000,,2013-09-20 08:42:00,
2013-09-20 01:52:00,79.0,66.0,-100.00,ESE,123,7.0,8.0,64,0.00,,,0.00,1.000000,,2013-09-20 08:52:00,
2013-09-20 02:01:00,79.0,66.0,-100.00,ESE,123,7.0,8.0,64,0.00,,,0.00,1.000000,,2013-09-20 09:01:00,
2013-09-20 02:12:00,79.0,66.0,-100.00,ESE,123,7.0,8.0,64,0.00,,,0.00,1.000000,,2013-09-20 09:12:00,
2013-09-20 02:44:00,80.0,65.0,-100.00,SE,133,6.0,8.0,61,0.00,,,0.00,1.000000,,2013-09-20 09:44:00,
2013-09-20 02:53:00,80.0,65.0,-100.00,SE,133,6.0,8.0,61,0.00,,,0.00,1.000000,,2013-09-20 09:53:00,
2013-09-20 03:03:00,80.0,65.0,-100.00,SE,133,6.0,8.0,61,0.00,,,0.00,1.000000,,2013-09-20 10:03:00,
2013-09-20 03:12:00,80.0,65.0,-100.00,SE,133,6.0,8.0,61,0.00,,,0.00,1.000000,,2013-09-20 10:12:00,
2013-09-20 03:42:00,79.0,65.0,-100.00,NE,51,2.0,7.0,63,0.00,,,0.00,1.000000,,2013-09-20 10:42:00,
2013-09-20 03:53:00,79.0,65.0,-100.00,NE,51,2.0,7.0,63,0.00,,,0.00,1.000000,,2013-09-20 10:53:00,
2013-09-20 04:03:00,79.0,65.0,-100.00,NE,51,2.0,7.0,63,0.00,,,0.00,1.000000,,2013-09-20 11:03:00,
2013-09-20 04:11:00,79.0,65.0,-100.00,NE,51,2.0,7.0,63,0.00,,,0.00,1.000000,,2013-09-20 11:11:00,
2013-09-20 04:42:00,77.0,65.0,-100.00,NE,55,5.0,7.0,67,0.00,,,0.00,1.000000,,2013-09-20 11:42:00,
2013-09-20 04:52:00,77.0,65.0,-100.00,NE,55,5.0,7.0,67,0.00,,,0.00,1.000000,,2013-09-20 11:52:00,
2013-09-20 05:02:00,77.0,65.0,-100.00,NE,55,5.0,7.0,67,0.00,,,0.00,1.000000,,2013-09-20 12:02:00,
2013-09-20 05:12:00,77.0,65.0,-100.00,NE,55,5.0,7.0,67,0.00,,,0.00,1.000000,,2013-09-20 12:12:00,
2013-09-20 05:43:00,76.0,65.0,-100.00,North,7,0.0,6.0,69,0.00,,,0.00,1.000000,,2013-09-20 12:43:00,
2013-09-20 05:52:00,76.0,65.0,-100.00,North,7,0.0,6.0,69,0.00,,,0.00,1.000000,,2013-09-20 12:52:00,
2013-09-20 06:02:00,76.0,65.0,-100.00,North,7,0.0,6.0,69,0.00,,,0.00,1.000000,,2013-09-20 13:02:00,
2013-09-20 06:12:00,76.0,65.0,-100.00,North,7,0.0,6.0,69,0.00,,,0.00,1.000000,,2013-09-20 13:12:00,
2013-09-20 06:42:00,77.0,64.0,-100.00,ENE,75,6.0,8.0,65,0.00,,,0.00,1.000000,,2013-09-20 13:42:00,
2013-09-20 06:52:00,77.0,64.0,-100.00,ENE,75,6.0,8.0,65,0.00,,,0.00,1.000000,,2013-09-20 13:52:00,
2013-09-20 07:02:00,77.0,64.0,-100.00,ENE,75,6.0,8.0,65,0.00,,,0.00,1.000000,,2013-09-20 14:02:00,
2013-09-20 07:11:00,77.0,64.0,-100.00,ENE,75,6.0,8.0,65,0.00,,,0.00,1.000000,,2013-09-20 14:11:00,
2013-09-20 07:42:00,76.0,65.0,-100.00,WNW,289,0.0,5.0,70,0.00,,,-99.99,26.000000,,2013-09-20 14:42:00,
2013-09-20 07:52:00,76.0,65.0,-100.00,WNW,289,0.0,5.0,70,0.00,,,-99.99,26.000000,,2013-09-20 14:52:00,
2013-09-20 08:02:00,76.0,65.0,-100.00,WNW,289,0.0,5.0,70,0.00,,,-99.99,26.000000,,2013-09-20 15:02:00,
2013-09-20 08:12:00,76.0,65.0,-100.00,WNW,289,0.0,5.0,70,0.00,,,-99.99,26.000000,,2013-09-20 15:12:00,
2013-09-20 08:44:00,82.0,66.0,-100.00,SE,125,3.0,4.0,59,0.00,,,0.00,231.000000,,2013-09-20 15:44:00,
2013-09-20 08:54:00,82.0,66.0,-100.00,SE,125,3.0,4.0,59,0.00,,,0.00,231.000000,,2013-09-20 15:54:00,
2013-09-20 09:04:00,82.0,66.0,-100.00,SE,125,3.0,4.0,59,0.00,,,0.00,231.000000,,2013-09-20 16:04:00,
2013-09-20 09:13:00,82.0,66.0,-100.00,SE,125,3.0,4.0,59,0.00,,,0.00,231.000000,,2013-09-20 16:13:00,
2013-09-20 09:42:00,87.0,64.0,-100.00,SE,144,3.0,6.0,46,0.00,,,0.00,451.000000,,2013-09-20 16:42:00,
2013-09-20 09:53:00,87.0,64.0,-100.00,SE,144,3.0,6.0,46,0.00,,,0.00,451.000000,,2013-09-20 16:53:00,
2013-09-20 10:03:00,87.0,64.0,-100.00,SE,144,3.0,6.0,46,0.00,,,0.00,451.000000,,2013-09-20 17:03:00,
2013-09-20 10:13:00,87.0,64.0,-100.00,SE,144,3.0,6.0,46,0.00,,,0.00,451.000000,,2013-09-20 17:13:00,
2013-09-20 10:42:00,91.0,65.0,-100.00,South,174,4.0,8.0,42,0.00,,,0.00,646.000000,,2013-09-20 17:42:00,
2013-09-20 10:53:00,91.0,65.0,-100.00,South,174,4.0,8.0,42,0.00,,,0.00,646.000000,,2013-09-20 17:53:00,
2013-09-20 11:02:00,91.0,65.0,-100.00,South,174,4.0,8.0,42,0.00,,,0.00,646.000000,,2013-09-20 18:02:00,
2013-09-20 11:12:00,91.0,65.0,-100.00,South,174,4.0,8.0,42,0.00,,,0.00,646.000000,,2013-09-20 18:12:00,
2013-09-20 11:42:00,95.0,60.0,-100.00,SE,146,6.0,10.0,31,0.00,,,0.00,799.000000,,2013-09-20 18:42:00,
2013-09-20 11:52:00,95.0,60.0,-100.00,SE,146,6.0,10.0,31,0.00,,,0.00,799.000000,,2013-09-20 18:52:00,
2013-09-20 12:02:00,95.0,60.0,-100.00,SE,146,6.0,10.0,31,0.00,,,0.00,799.000000,,2013-09-20 19:02:00,
2013-09-20 12:11:00,95.0,60.0,-100.00,SE,146,6.0,10.0,31,0.00,,,0.00,799.000000,,2013-09-20 19:11:00,
2013-09-20 12:42:00,98.0,58.0,-100.00,SSE,163,6.0,11.0,27,0.00,,,0.00,890.000000,,2013-09-20 19:42:00,
2013-09-20 12:53:00,98.0,58.0,-100.00,SSE,163,6.0,11.0,27,0.00,,,0.00,890.000000,,2013-09-20 19:53:00,
2013-09-20 13:03:00,98.0,58.0,-100.00,SSE,163,6.0,11.0,27,0.00,,,0.00,890.000000,,2013-09-20 20:03:00,
2013-09-20 13:11:00,98.0,58.0,-100.00,SSE,163,6.0,11.0,27,0.00,,,0.00,890.000000,,2013-09-20 20:11:00,
2013-09-20 13:42:00,100.0,54.0,-100.00,SSE,159,9.0,14.0,22,0.00,,,0.00,917.000000,,2013-09-20 20:42:00,
2013-09-20 13:52:00,100.0,54.0,-100.00,SSE,159,9.0,14.0,22,0.00,,,0.00,917.000000,,2013-09-20 20:52:00,
2013-09-20 14:02:00,100.0,54.0,-100.00,SSE,159,9.0,14.0,22,0.00,,,0.00,917.000000,,2013-09-20 21:02:00,
2013-09-20 14:12:00,100.0,54.0,-100.00,SSE,159,9.0,14.0,22,0.00,,,0.00,917.000000,,2013-09-20 21:12:00,
2013-09-20 14:45:00,101.0,51.0,-100.00,South,175,8.0,15.0,19,0.00,,,0.00,865.000000,,2013-09-20 21:45:00,
2013-09-20 14:54:00,101.0,51.0,-100.00,South,175,8.0,15.0,19,0.00,,,0.00,865.000000,,2013-09-20 21:54:00,
2013-09-20 15:04:00,101.0,51.0,-100.00,South,175,8.0,15.0,19,0.00,,,0.00,865.000000,,2013-09-20 22:04:00,
2013-09-20 15:14:00,101.0,51.0,-100.00,South,175,8.0,15.0,19,0.00,,,0.00,865.000000,,2013-09-20 22:14:00,
2013-09-20 15:44:00,102.0,50.0,-100.00,South,190,7.0,15.0,18,0.00,,,0.00,744.000000,,2013-09-20 22:44:00,
2013-09-20 15:53:00,102.0,50.0,-100.00,South,190,7.0,15.0,18,0.00,,,0.00,744.000000,,2013-09-20 22:53:00,
2013-09-20 16:02:00,102.0,50.0,-100.00,South,190,7.0,15.0,18,0.00,,,0.00,744.000000,,2013-09-20 23:02:00,
2013-09-20 16:12:00,102.0,50.0,-100.00,South,190,7.0,15.0,18,0.00,,,0.00,744.000000,,2013-09-20 23:12:00,
2013-09-20 16:42:00,102.0,47.0,-100.00,SSE,167,10.0,15.0,16,0.00,,,0.00,575.000000,,2013-09-20 23:42:00,
2013-09-20 16:53:00,102.0,47.0,-100.00,SSE,167,10.0,15.0,16,0.00,,,0.00,575.000000,,2013-09-20 23:53:00,
2013-09-20 17:02:00,102.0,47.0,-100.00,SSE,167,10.0,15.0,16,0.00,,,0.00,575.000000,,2013-09-21 00:02:00,
2013-09-20 17:11:00,102.0,47.0,-100.00,SSE,167,10.0,15.0,16,0.00,,,0.00,575.000000,,2013-09-21 00:11:00,
2013-09-20 17:42:00,102.0,49.0,-100.00,South,170,9.0,13.0,17,0.00,,,0.00,368.000000,,2013-09-21 00:42:00,
2013-09-20 17:52:00,102.0,49.0,-100.00,South,170,9.0,13.0,17,0.00,,,0.00,368.000000,,2013-09-21 00:52:00,
2013-09-20 18:01:00,102.0,49.0,-100.00,South,170,9.0,13.0,17,0.00,,,0.00,368.000000,,2013-09-21 01:01:00,
2013-09-20 18:12:00,102.0,49.0,-100.00,South,170,9.0,13.0,17,0.00,,,0.00,368.000000,,2013-09-21 01:12:00,
2013-09-20 18:42:00,99.0,51.0,-100.00,South,173,8.0,13.0,20,0.00,,,0.00,152.000000,,2013-09-21 01:42:00,
2013-09-20 18:52:00,99.0,51.0,-100.00,South,173,8.0,13.0,20,0.00,,,0.00,152.000000,,2013-09-21 01:52:00,
2013-09-20 19:02:00,99.0,51.0,-100.00,South,173,8.0,13.0,20,0.00,,,0.00,152.000000,,2013-09-21 02:02:00,
2013-09-20 19:12:00,99.0,51.0,-100.00,South,173,8.0,13.0,20,0.00,,,0.00,152.000000,,2013-09-21 02:12:00,
2013-09-20 19:42:00,92.0,52.0,-100.00,South,174,7.0,11.0,26,0.00,,,0.00,8.000000,,2013-09-21 02:42:00,
2013-09-20 19:52:00,92.0,52.0,-100.00,South,174,7.0,11.0,26,0.00,,,0.00,8.000000,,2013-09-21 02:52:00,
2013-09-20 20:02:00,92.0,52.0,-100.00,South,174,7.0,11.0,26,0.00,,,0.00,8.000000,,2013-09-21 03:02:00,
2013-09-20 20:12:00,92.0,52.0,-100.00,South,174,7.0,11.0,26,0.00,,,0.00,8.000000,,2013-09-21 03:12:00,
2013-09-20 20:44:00,88.0,56.0,-100.00,SSW,193,9.0,11.0,34,0.00,,,0.00,1.000000,,2013-09-21 03:44:00,
2013-09-20 20:55:00,88.0,56.0,-100.00,SSW,193,9.0,11.0,34,0.00,,,0.00,1.000000,,2013-09-21 03:55:00,
2013-09-20 21:04:00,88.0,56.0,-100.00,SSW,193,9.0,11.0,34,0.00,,,0.00,1.000000,,2013-09-21 04:04:00,
2013-09-20 21:14:00,88.0,56.0,-100.00,SSW,193,9.0,11.0,34,0.00,,,0.00,1.000000,,2013-09-21 04:14:00,
2013-09-20 21:43:00,83.0,59.0,-100.00,SE,133,7.0,12.0,45,0.00,,,0.00,1.000000,,2013-09-21 04:43:00,
2013-09-20 21:54:00,83.0,59.0,-100.00,SE,133,7.0,12.0,45,0.00,,,0.00,1.000000,,2013-09-21 04:54:00,
2013-09-20 22:03:00,83.0,59.0,-100.00,SE,133,7.0,12.0,45,0.00,,,0.00,1.000000,,2013-09-21 05:03:00,
2013-09-20 22:12:00,83.0,59.0,-100.00,SE,133,7.0,12.0,45,0.00,,,0.00,1.000000,,2013-09-21 05:12:00,
2013-09-20 22:44:00,82.0,63.0,-100.00,SE,139,9.0,12.0,53,0.00,,,0.00,1.000000,,2013-09-21 05:44:00,
2013-09-20 22:53:00,82.0,63.0,-100.00,SE,139,9.0,12.0,53,0.00,,,0.00,1.000000,,2013-09-21 05:53:00,
2013-09-20 23:02:00,82.0,63.0,-100.00,SE,139,9.0,12.0,53,0.00,,,0.00,1.000000,,2013-09-21 06:02:00,
2013-09-20 23:12:00,82.0,63.0,-100.00,SE,139,9.0,12.0,53,0.00,,,0.00,1.000000,,2013-09-21 06:12:00,
2013-09-20 23:42:00,81.0,66.0,-100.00,SE,143,13.0,16.0,61,0.00,,,0.00,1.000000,,2013-09-21 06:42:00,
2013-09-20 23:52:00,81.0,66.0,-100.00,SE,143,13.0,16.0,61,0.00,,,0.00,1.000000,,2013-09-21 06:52:00,